Time;durP1;ratioP1;P1;durP2;ratioP2;P2;SDS_P1;SDS_P2;PMS_P1;PMS_P2;Temp;Humidity;BMP_temperature;BMP_pressure;BME280_temperature;BME280_humidity;BME280_pressure;Samples;Min_cycle;Max_cycle;Signal;HPM_P1;HPM_P2
2022/12/30 00:01:10;;;;;;;5.17;1.80;;;7.20;99.90;;;-141.84;73.79;18996.91;5049959;28;20225;-64
2022/12/30 00:03:40;;;;;;;3.43;1.60;;;7.30;99.90;;;-141.84;73.64;18984.72;5050575;28;20182;-63
2022/12/30 00:06:14;;;;;;;4.23;1.90;;;7.30;99.90;;;-141.84;74.24;18998.94;5052453;28;20216;-63
2022/12/30 00:08:49;;;;;;;3.80;1.63;;;7.30;99.90;;;-141.84;74.48;18996.91;5065242;28;20223;-63
2022/12/30 00:11:21;;;;;;;5.40;1.70;;;7.20;99.90;;;-141.84;75.16;18974.56;5053168;28;20228;-63
2022/12/30 00:33:49;;;;;;;3.57;1.67;;;7.40;99.90;;;-141.84;70.55;19043.66;5053594;28;20244;-64
2022/12/30 00:36:19;;;;;;;4.27;1.40;;;7.50;99.90;;;-141.84;69.50;19076.16;5041697;28;20221;-64
2022/12/30 00:38:47;;;;;;;5.23;1.70;;;7.50;99.90;;;-141.84;69.87;19039.59;5053144;28;20241;-65
2022/12/30 00:44:01;;;;;;;6.67;1.60;;;7.50;99.90;;;-141.84;69.83;19063.97;5053044;28;20225;-65
2022/12/30 00:46:29;;;;;;;2.40;1.30;;;7.50;99.90;;;-141.84;70.27;19045.69;5053152;28;20222;-55
2022/12/30 00:57:16;;;;;;;4.60;2.10;;;7.50;99.90;;;-141.84;68.83;19084.28;5073438;28;20346;-55
2022/12/30 00:59:44;;;;;;;5.30;1.60;;;7.60;99.90;;;-141.84;69.34;19066.00;5073053;28;20220;-56
2022/12/30 01:02:12;;;;;;;5.20;1.47;;;7.60;99.90;;;-141.84;68.39;19057.88;5073205;28;20228;-56
2022/12/30 01:04:41;;;;;;;4.40;1.10;;;7.60;99.90;;;-141.84;69.15;19082.25;5072946;28;20221;-55
2022/12/30 01:07:10;;;;;;;4.50;1.43;;;7.60;99.90;;;-141.84;68.24;19074.13;5072593;28;20229;-57
2022/12/30 01:09:39;;;;;;;3.60;1.33;;;7.60;99.90;;;-141.84;67.82;19104.59;5073344;28;20284;-56
2022/12/30 01:12:10;;;;;;;2.10;0.90;;;7.60;99.90;;;-141.84;68.45;19039.59;5072547;28;20247;-56
2022/12/30 01:14:42;;;;;;;5.37;1.33;;;7.70;99.90;;;-141.84;68.10;19057.88;5072576;28;20224;-57
2022/12/30 01:17:13;;;;;;;3.87;1.47;;;7.70;99.90;;;-141.84;67.97;19066.00;5072816;28;20220;-54
2022/12/30 01:19:42;;;;;;;3.30;1.37;;;7.60;99.90;;;-141.84;68.08;19070.06;5073097;28;20580;-57
2022/12/30 01:22:11;;;;;;;4.30;1.10;;;7.60;99.90;;;-141.84;67.17;19092.41;5072441;28;20564;-56
2022/12/30 01:24:40;;;;;;;4.37;1.50;;;7.70;99.90;;;-141.84;67.96;19094.44;5073242;28;20196;-54
2022/12/30 01:27:08;;;;;;;2.57;1.10;;;7.60;99.90;;;-141.84;68.40;19057.88;5072284;28;20672;-56
2022/12/30 01:29:39;;;;;;;4.57;1.80;;;7.60;99.90;;;-141.84;68.57;19094.44;5072508;28;20251;-56
2022/12/30 01:32:13;;;;;;;4.80;1.30;;;7.50;99.90;;;-141.84;68.99;19092.41;5072352;28;20244;-55
2022/12/30 01:34:42;;;;;;;3.40;1.10;;;7.50;99.90;;;-141.84;68.29;19074.13;5072309;28;20270;-53
2022/12/30 01:37:14;;;;;;;3.30;1.07;;;7.50;99.90;;;-141.84;68.36;19070.06;5072061;28;20294;-54
2022/12/30 01:39:42;;;;;;;3.97;1.23;;;7.50;99.90;;;-141.84;66.88;19122.91;5072794;28;20189;-53
2022/12/30 01:42:19;;;;;;;4.00;1.13;;;7.60;99.90;;;-141.84;67.06;19104.59;5071952;28;20236;-55
2022/12/30 01:45:00;;;;;;;6.60;1.90;;;7.60;99.90;;;-141.84;67.66;19098.50;5071498;28;20216;-53
2022/12/30 01:47:38;;;;;;;2.60;1.30;;;7.60;99.90;;;-141.84;67.84;19045.69;5072170;28;20220;-55
2022/12/30 01:50:20;;;;;;;2.83;1.20;;;7.60;99.90;;;-141.84;68.11;19074.13;5072338;28;20224;-53
2022/12/30 01:52:58;;;;;;;4.77;1.20;;;7.50;99.90;;;-141.84;68.12;19084.28;5071711;28;20224;-56
2022/12/30 01:55:33;;;;;;;4.27;1.37;;;7.50;99.90;;;-141.84;68.22;19057.88;5071964;28;20315;-56
2022/12/30 01:58:08;;;;;;;5.40;1.70;;;7.50;99.90;;;-141.84;68.15;19074.13;5071112;28;20191;-56
2022/12/30 02:00:37;;;;;;;4.73;1.17;;;7.50;99.90;;;-141.84;67.67;19096.47;5071888;28;20572;-58
2022/12/30 02:03:07;;;;;;;5.30;1.63;;;7.60;99.90;;;-141.84;66.98;19100.53;5061827;28;20228;-55
2022/12/30 02:05:40;;;;;;;4.60;1.63;;;7.60;99.90;;;-141.84;68.00;19094.44;5071987;28;20228;-55
2022/12/30 02:08:14;;;;;;;4.93;1.30;;;7.50;99.90;;;-141.84;68.54;19118.84;5071599;28;20224;-54
2022/12/30 02:10:46;;;;;;;4.00;1.20;;;7.40;99.90;;;-141.84;68.08;19112.75;5071680;28;20224;-57
2022/12/30 02:13:17;;;;;;;6.07;1.60;;;7.40;99.90;;;-141.84;68.64;19057.88;5071472;28;20228;-55
2022/12/30 02:16:04;;;;;;;4.13;1.50;;;7.30;99.90;;;-141.84;68.73;19076.16;5072044;28;20208;-56
2022/12/30 02:18:52;;;;;;;3.53;1.30;;;7.30;99.90;;;-141.84;69.06;19076.16;5071703;28;20223;-58
2022/12/30 02:21:53;;;;;;;3.97;1.57;;;7.20;99.90;;;-141.84;69.15;19049.75;5072077;28;20258;-55
2022/12/30 02:25:26;;;;;;;4.87;1.50;;;7.20;99.90;;;-141.84;68.89;19041.63;5071839;28;20223;-55
2022/12/30 02:28:23;;;;;;;4.27;1.50;;;7.20;99.90;;;-141.84;69.44;19063.97;5034757;28;20554;-55
2022/12/30 02:31:31;;;;;;;5.43;1.47;;;7.10;99.90;;;-141.84;69.66;19025.38;5071298;28;20648;-54
2022/12/30 02:34:14;;;;;;;4.73;1.43;;;7.00;99.90;;;-141.84;68.67;19035.53;5071220;28;20185;-55
2022/12/30 02:36:52;;;;;;;3.43;1.53;;;7.10;99.90;;;-141.84;69.50;19037.56;5071933;28;20208;-57
2022/12/30 02:39:33;;;;;;;4.13;1.30;;;7.10;99.90;;;-141.84;70.49;19015.19;5071417;28;20213;-54
2022/12/30 02:45:06;;;;;;;4.23;1.50;;;6.80;99.90;;;-141.84;70.32;19027.41;5071253;28;20221;-52
2022/12/30 02:47:42;;;;;;;6.33;1.90;;;6.80;99.90;;;-141.84;70.43;19023.34;5070911;28;20656;-55
2022/12/30 02:53:11;;;;;;;4.20;1.60;;;6.90;99.90;;;-141.84;69.80;19035.53;5031708;28;20233;-54
2022/12/30 02:55:39;;;;;;;4.43;1.60;;;6.90;99.90;;;-141.84;69.48;19033.50;5071115;28;20224;-55
2022/12/30 02:58:07;;;;;;;5.47;1.83;;;6.90;99.90;;;-141.84;69.51;19023.34;5070686;28;20232;-53
2022/12/30 03:04:00;;;;;;;4.40;1.70;;;6.90;99.90;;;-141.84;70.99;19027.41;5071229;28;20208;-57
2022/12/30 03:07:15;;;;;;;6.97;1.50;;;6.80;99.90;;;-141.84;71.13;19011.13;5071183;28;20247;-54
2022/12/30 03:12:55;;;;;;;5.47;1.77;;;6.70;99.90;;;-141.84;70.15;19029.44;5048172;28;20207;-55
2022/12/30 03:15:33;;;;;;;6.37;2.03;;;6.70;99.90;;;-141.84;69.41;19045.69;5071198;28;20212;-51
2022/12/30 03:18:04;;;;;;;4.77;1.67;;;6.80;99.90;;;-141.84;68.99;19013.16;5070576;28;20281;-51
2022/12/30 03:20:35;;;;;;;2.03;1.17;;;6.80;99.90;;;-141.84;69.69;19070.06;5070692;28;20232;-57
2022/12/30 03:28:44;;;;;;;8.23;1.83;;;6.80;99.90;;;-141.84;69.92;19005.03;5070326;28;20228;-56
2022/12/30 03:31:16;;;;;;;3.73;1.30;;;6.80;99.90;;;-141.84;69.13;19027.41;5070268;28;20224;-57
2022/12/30 03:33:44;;;;;;;5.87;1.50;;;6.80;99.90;;;-141.84;69.22;19037.56;5070735;28;20181;-53
2022/12/30 03:36:18;;;;;;;4.87;1.70;;;6.80;99.90;;;-141.84;69.46;19033.50;5069164;28;20235;-56
2022/12/30 03:38:54;;;;;;;5.17;1.83;;;6.80;99.90;;;-141.84;69.91;19025.38;5070474;28;20259;-53
2022/12/30 03:41:25;;;;;;;5.60;1.80;;;6.70;99.90;;;-141.84;69.80;19031.47;5070700;28;20253;-57
2022/12/30 03:43:56;;;;;;;6.33;1.83;;;6.70;99.90;;;-141.84;69.80;18998.94;5070461;28;20223;-55
2022/12/30 03:46:31;;;;;;;5.13;1.60;;;6.70;99.90;;;-141.84;69.24;19066.00;5070447;28;20684;-54
2022/12/30 03:48:59;;;;;;;5.37;2.00;;;6.80;99.90;;;-141.84;69.27;18990.81;5070533;28;20267;-52
2022/12/30 03:51:28;;;;;;;6.10;1.60;;;6.70;99.90;;;-141.84;69.81;19009.09;5071098;28;20196;-55
2022/12/30 03:53:57;;;;;;;6.77;1.70;;;6.70;99.90;;;-141.84;70.33;19041.63;5070567;28;20230;-54
2022/12/30 03:56:25;;;;;;;3.63;1.50;;;6.60;99.90;;;-141.84;70.38;18972.53;5070358;28;20232;-55
2022/12/30 03:58:53;;;;;;;3.33;1.10;;;6.50;99.90;;;-141.84;70.99;19005.03;5070225;28;20223;-54
2022/12/30 04:01:21;;;;;;;4.97;1.50;;;6.50;99.90;;;-141.84;70.48;19003.00;5070438;28;20703;-56
2022/12/30 04:03:50;;;;;;;3.43;1.43;;;6.50;99.90;;;-141.84;70.65;18986.75;5070183;28;20254;-52
2022/12/30 04:06:18;;;;;;;3.80;1.73;;;6.50;99.90;;;-141.84;70.62;19015.19;5070696;28;20196;-58
2022/12/30 04:08:47;;;;;;;5.93;1.60;;;6.50;99.90;;;-141.84;70.53;19009.09;5073749;28;20232;-55
2022/12/30 04:11:16;;;;;;;5.03;1.70;;;6.50;99.90;;;-141.84;70.43;19025.38;5074211;28;20582;-54
2022/12/30 04:13:44;;;;;;;6.97;1.73;;;6.50;99.90;;;-141.84;70.66;19005.03;5073797;28;20614;-55
2022/12/30 04:16:12;;;;;;;3.93;1.40;;;6.50;99.90;;;-141.84;70.06;19017.25;5074146;28;20236;-54
2022/12/30 04:18:40;;;;;;;4.93;1.50;;;6.50;99.90;;;-141.84;71.04;18962.38;5074401;28;20288;-56
2022/12/30 04:21:08;;;;;;;3.23;1.10;;;6.50;99.90;;;-141.84;70.77;18972.53;5073718;28;20228;-53
2022/12/30 04:23:36;;;;;;;3.80;1.70;;;6.40;99.90;;;-141.84;69.95;18990.81;5074098;28;20236;-55
2022/12/30 04:26:06;;;;;;;2.90;1.30;;;6.50;99.90;;;-141.84;70.29;18984.72;5073787;28;20231;-54
2022/12/30 04:28:34;;;;;;;4.83;1.73;;;6.50;99.90;;;-141.84;70.68;19007.06;5073582;28;20224;-55
2022/12/30 04:31:03;;;;;;;4.10;1.40;;;6.40;99.90;;;-141.84;71.20;18980.66;5073795;28;20212;-54
2022/12/30 04:33:31;;;;;;;5.00;1.20;;;6.40;99.90;;;-141.84;71.36;18956.28;5074423;28;20618;-54
2022/12/30 04:35:59;;;;;;;4.33;1.40;;;6.30;99.90;;;-141.84;71.74;18956.28;5073021;28;20943;-53
2022/12/30 04:38:28;;;;;;;8.00;1.60;;;6.30;99.90;;;-141.84;70.57;19017.25;5073641;28;20223;-55
2022/12/30 04:40:56;;;;;;;2.63;1.10;;;6.30;99.90;;;-141.84;70.41;19005.03;5073519;28;20216;-54
2022/12/30 04:43:26;;;;;;;5.87;1.63;;;6.30;99.90;;;-141.84;70.22;18988.78;5073641;28;20220;-52
2022/12/30 04:45:54;;;;;;;5.87;1.50;;;6.30;99.90;;;-141.84;70.24;18998.94;5073348;28;20193;-53
2022/12/30 04:48:22;;;;;;;4.43;1.53;;;6.30;99.90;;;-141.84;70.64;18998.94;5073764;28;20193;-55
2022/12/30 04:50:50;;;;;;;6.70;1.60;;;6.30;99.90;;;-141.84;69.67;18990.81;5072894;28;20228;-52
2022/12/30 04:53:18;;;;;;;7.50;1.47;;;6.30;99.90;;;-141.84;69.89;18980.66;5073112;28;20715;-53
2022/12/30 04:55:51;;;;;;;6.63;1.60;;;6.40;99.90;;;-141.84;70.16;18986.75;5073166;28;20231;-56
2022/12/30 04:58:19;;;;;;;6.03;1.40;;;6.30;99.90;;;-141.84;69.69;19000.97;5073138;28;20216;-54
2022/12/30 05:00:51;;;;;;;3.13;1.50;;;6.30;99.90;;;-141.84;69.13;19017.25;5073288;28;20201;-57
2022/12/30 05:03:19;;;;;;;5.03;1.40;;;6.30;99.90;;;-141.84;69.04;19015.19;5073801;28;20225;-56
2022/12/30 05:05:48;;;;;;;6.27;1.30;;;6.40;99.90;;;-141.84;68.74;18996.91;5072785;28;20301;-53
2022/12/30 05:08:16;;;;;;;3.20;1.47;;;6.40;99.90;;;-141.84;69.46;19009.09;5073221;28;20228;-55
2022/12/30 05:10:45;;;;;;;9.07;1.57;;;6.40;99.90;;;-141.84;69.80;18992.84;5072929;28;20232;-54
2022/12/30 05:13:13;;;;;;;3.73;1.10;;;6.30;99.90;;;-141.84;69.63;19011.13;5072679;28;20224;-53
2022/12/30 05:15:42;;;;;;;4.63;1.17;;;6.30;99.90;;;-141.84;69.70;19013.16;5073440;28;20221;-56
2022/12/30 05:18:12;;;;;;;5.83;1.30;;;6.30;99.90;;;-141.84;68.89;18998.94;5072348;28;20715;-53
2022/12/30 05:20:40;;;;;;;3.57;1.27;;;6.30;99.90;;;-141.84;68.94;19035.53;5072128;28;20228;-55
2022/12/30 05:26:13;;;;;;;5.73;1.53;;;6.30;99.90;;;-141.84;69.12;19021.31;5073072;28;20565;-56
2022/12/30 05:26:13;;;;;;;4.73;1.43;;;6.40;99.90;;;-141.84;69.88;19011.13;5072689;28;20220;-57
2022/12/30 05:28:42;;;;;;;4.63;1.70;;;6.30;99.90;;;-141.84;69.55;18982.69;5072706;28;20231;-54
2022/12/30 05:31:10;;;;;;;5.33;1.37;;;6.30;99.90;;;-141.84;69.99;18994.88;5072768;28;20236;-63
2022/12/30 05:33:40;;;;;;;7.30;1.57;;;6.30;99.90;;;-141.84;70.57;18992.84;5073262;28;20600;-63
2022/12/30 05:36:10;;;;;;;5.40;1.60;;;6.20;99.90;;;-141.84;70.13;18994.88;5071953;28;20223;-62
2022/12/30 05:38:39;;;;;;;8.17;1.67;;;6.20;99.90;;;-141.84;69.92;18996.91;5072679;28;20560;-63
2022/12/30 05:41:09;;;;;;;8.00;2.50;;;6.20;99.90;;;-141.84;68.89;19015.19;5072337;28;20227;-62
2022/12/30 05:43:48;;;;;;;5.47;1.40;;;6.30;99.90;;;-141.84;69.46;18980.66;5072413;28;20250;-62
2022/12/30 05:46:16;;;;;;;2.87;1.63;;;6.30;99.90;;;-141.84;69.52;19031.47;5072420;28;20231;-64
2022/12/30 05:48:46;;;;;;;6.33;1.63;;;6.30;99.90;;;-141.84;70.32;18982.69;5072987;28;20219;-62
2022/12/30 05:51:14;;;;;;;4.73;1.53;;;6.20;99.90;;;-141.84;71.06;18956.28;5072460;28;20217;-63
2022/12/30 05:53:43;;;;;;;4.00;1.30;;;6.10;99.90;;;-141.84;71.74;18978.63;5072067;28;20231;-63
2022/12/30 05:56:11;;;;;;;4.13;1.80;;;6.00;99.90;;;-141.84;72.49;18948.16;5071992;28;20232;-63
2022/12/30 05:58:39;;;;;;;3.43;1.40;;;5.70;99.90;;;-141.84;73.30;18899.38;5072211;28;20223;-63
2022/12/30 06:01:07;;;;;;;4.40;1.60;;;5.70;99.90;;;-141.84;73.63;18929.88;5071992;28;20564;-63
2022/12/30 06:03:36;;;;;;;3.43;1.80;;;5.50;99.90;;;-141.84;73.98;18913.59;5072402;28;20604;-62
2022/12/30 06:06:08;;;;;;;7.07;1.73;;;5.40;99.90;;;-141.84;74.30;18921.75;5071780;28;20228;-63
2022/12/30 06:08:37;;;;;;;4.07;1.50;;;5.40;99.90;;;-141.84;74.64;18919.69;5072298;28;20228;-62
2022/12/30 06:11:07;;;;;;;4.00;1.40;;;5.30;99.90;;;-141.84;74.95;18891.25;5071149;28;20220;-63
2022/12/30 06:13:35;;;;;;;4.07;1.50;;;5.30;99.90;;;-141.84;72.85;18935.97;5071597;28;20223;-63
2022/12/30 06:16:03;;;;;;;4.33;1.63;;;5.40;99.90;;;-141.84;73.64;18938.00;5071820;28;20243;-62
2022/12/30 06:18:33;;;;;;;5.67;1.80;;;5.40;99.90;;;-141.84;73.94;18925.81;5072594;28;20197;-63
2022/12/30 06:21:01;;;;;;;5.83;2.17;;;5.40;99.90;;;-141.84;73.27;18923.78;5071902;28;20220;-63
2022/12/30 06:23:32;;;;;;;7.20;1.90;;;5.40;99.90;;;-141.84;73.22;18927.84;5072774;28;20225;-62
2022/12/30 06:26:00;;;;;;;3.23;1.43;;;5.50;99.90;;;-141.84;73.20;18925.81;5071909;28;20604;-62
2022/12/30 06:28:31;;;;;;;5.40;1.50;;;5.40;99.90;;;-141.84;73.94;18903.44;5071018;28;20604;-62
2022/12/30 06:30:59;;;;;;;5.47;1.50;;;5.40;99.90;;;-141.84;74.87;18899.38;5070250;28;20197;-63
2022/12/30 06:33:27;;;;;;;4.80;1.67;;;5.20;99.90;;;-141.84;74.96;18933.94;5068930;28;20210;-64
2022/12/30 06:35:56;;;;;;;4.00;1.47;;;5.20;99.90;;;-141.84;75.65;18907.50;5070169;28;20231;-64
2022/12/30 06:38:24;;;;;;;4.80;1.90;;;5.10;99.90;;;-141.84;76.04;18866.88;5071645;28;20227;-62
2022/12/30 06:40:54;;;;;;;3.23;1.47;;;5.00;99.90;;;-141.84;75.96;18891.25;5071720;28;20243;-62
2022/12/30 06:43:22;;;;;;;6.77;1.73;;;5.10;99.90;;;-141.84;76.21;18860.78;5071029;28;20235;-63
2022/12/30 06:45:50;;;;;;;6.50;1.50;;;5.10;99.90;;;-141.84;75.01;18911.56;5070588;28;20283;-63
2022/12/30 06:48:18;;;;;;;4.23;1.90;;;5.20;99.90;;;-141.84;74.35;18923.78;5071674;28;20400;-63
2022/12/30 06:50:46;;;;;;;4.30;1.77;;;5.20;99.90;;;-141.84;74.74;18895.31;5070280;28;20243;-64
2022/12/30 06:53:15;;;;;;;5.93;1.60;;;5.20;99.90;;;-141.84;73.92;18901.41;5070058;28;20726;-65
2022/12/30 06:55:43;;;;;;;6.37;1.70;;;5.30;99.90;;;-141.84;74.45;18903.44;5070967;28;20225;-64
2022/12/30 06:58:13;;;;;;;5.63;1.67;;;5.30;99.90;;;-141.84;73.48;18907.50;5070693;28;20239;-65
2022/12/30 07:00:41;;;;;;;5.53;1.90;;;5.30;99.90;;;-141.84;72.80;18907.50;5071833;28;20612;-65
2022/12/30 07:03:12;;;;;;;6.13;2.10;;;5.40;99.90;;;-141.84;73.75;18895.31;5071220;28;20232;-64
2022/12/30 07:05:40;;;;;;;5.53;1.77;;;5.30;99.90;;;-141.84;73.99;18891.25;5071359;28;20259;-64
2022/12/30 07:08:08;;;;;;;6.67;2.13;;;5.30;99.90;;;-141.84;74.01;18938.00;5066219;28;20247;-64
2022/12/30 07:10:37;;;;;;;4.63;2.07;;;5.30;99.90;;;-141.84;73.57;18919.69;5070887;28;20226;-64
2022/12/30 07:13:05;;;;;;;6.50;2.50;;;5.30;99.90;;;-141.84;73.22;18944.09;5070959;28;20214;-63
2022/12/30 07:15:34;;;;;;;6.00;2.00;;;5.40;99.90;;;-141.84;73.36;18933.94;5070954;28;20522;-64
2022/12/30 07:18:02;;;;;;;5.00;1.97;;;5.30;99.90;;;-141.84;72.13;18913.59;5070352;28;20314;-64
2022/12/30 07:20:31;;;;;;;4.50;2.00;;;5.50;99.90;;;-141.84;71.66;18919.69;5057976;28;20231;-65
2022/12/30 07:22:59;;;;;;;7.20;1.80;;;5.50;99.90;;;-141.84;72.74;18919.69;5050332;28;20232;-65
2022/12/30 07:25:30;;;;;;;6.73;2.10;;;5.40;99.90;;;-141.84;72.19;18948.16;5050376;28;20708;-64
2022/12/30 07:28:00;;;;;;;8.63;1.97;;;5.50;99.90;;;-141.84;71.85;18938.00;5049949;28;20598;-64
2022/12/30 07:30:29;;;;;;;6.20;1.83;;;5.50;99.90;;;-141.84;72.65;18889.22;5050070;28;20244;-65
2022/12/30 07:33:02;;;;;;;6.83;1.90;;;5.50;99.90;;;-141.84;72.41;18931.91;5050668;28;20723;-63
2022/12/30 07:35:30;;;;;;;2.70;1.40;;;5.50;99.90;;;-141.84;72.85;18931.91;5065589;28;20249;-65
2022/12/30 07:37:59;;;;;;;3.87;1.43;;;5.50;99.90;;;-141.84;73.16;18895.31;5070349;28;20262;-65
2022/12/30 07:40:27;;;;;;;7.50;1.80;;;5.50;99.90;;;-141.84;73.93;18921.75;5070643;28;20220;-66
2022/12/30 07:42:55;;;;;;;4.57;1.50;;;5.50;99.90;;;-141.84;73.97;18927.84;5073046;28;20212;-63
2022/12/30 07:45:23;;;;;;;3.63;1.83;;;5.40;99.90;;;-141.84;74.15;18893.28;5075787;28;20200;-65
2022/12/30 07:47:51;;;;;;;3.93;1.70;;;5.40;99.90;;;-141.84;73.79;18897.34;5074925;28;20254;-65
2022/12/30 07:50:21;;;;;;;4.63;1.77;;;5.40;99.90;;;-141.84;73.22;18935.97;5075156;28;20231;-65
2022/12/30 07:52:49;;;;;;;5.93;1.93;;;5.50;99.90;;;-141.84;73.57;18923.78;5074229;28;20228;-64
2022/12/30 07:55:17;;;;;;;3.40;1.50;;;5.50;99.90;;;-141.84;73.30;18923.78;5075006;28;20227;-67
2022/12/30 07:57:45;;;;;;;3.27;1.77;;;5.60;99.90;;;-141.84;72.94;18938.00;5073068;28;20235;-65
2022/12/30 08:00:15;;;;;;;2.43;1.60;;;5.60;99.90;;;-141.84;72.41;18948.16;5074779;28;20221;-66
2022/12/30 08:02:48;;;;;;;4.60;1.93;;;5.70;99.90;;;-141.84;73.87;18913.59;5074826;28;20714;-64
2022/12/30 08:05:17;;;;;;;7.63;1.87;;;5.60;99.90;;;-141.84;73.03;18931.91;5074410;28;20278;-65
2022/12/30 08:07:46;;;;;;;5.40;1.80;;;5.70;99.90;;;-141.84;73.20;18931.91;5074039;28;20845;-66
2022/12/30 08:10:15;;;;;;;4.00;1.80;;;5.70;99.90;;;-141.84;73.52;18935.97;5074109;28;20930;-66
2022/12/30 08:12:45;;;;;;;8.67;2.13;;;5.70;99.90;;;-141.84;72.08;18927.84;5073886;28;20533;-65
2022/12/30 08:15:13;;;;;;;8.87;2.37;;;5.80;99.90;;;-141.84;71.74;18962.38;5074670;28;20231;-67
2022/12/30 08:17:42;;;;;;;6.90;1.80;;;5.90;99.90;;;-141.84;72.14;18919.69;5073887;28;20235;-66
2022/12/30 08:20:11;;;;;;;7.40;1.67;;;6.00;99.90;;;-141.84;71.92;18946.13;5074442;28;20228;-68
2022/12/30 08:22:40;;;;;;;5.63;2.03;;;6.00;99.90;;;-141.84;71.72;18970.50;5074143;28;20221;-66
2022/12/30 08:25:09;;;;;;;3.77;1.77;;;6.10;99.90;;;-141.84;71.30;18960.34;5074104;28;20231;-66
2022/12/30 08:27:38;;;;;;;5.30;1.80;;;6.20;99.90;;;-141.84;71.02;18956.28;5073763;28;20560;-65
2022/12/30 08:30:08;;;;;;;4.33;1.80;;;6.30;99.90;;;-141.84;71.02;18988.78;5073904;28;20683;-66
2022/12/30 08:32:36;;;;;;;8.03;2.30;;;6.30;99.90;;;-141.84;70.69;18976.59;5074252;28;20228;-66
2022/12/30 08:35:07;;;;;;;4.00;1.63;;;6.30;99.90;;;-141.84;69.81;19000.97;5073475;28;20963;-64
2022/12/30 08:37:35;;;;;;;6.33;1.90;;;6.40;99.90;;;-141.84;69.97;19017.25;5073877;28;20225;-64
2022/12/30 08:40:04;;;;;;;6.07;1.80;;;6.40;99.90;;;-141.84;69.77;19000.97;5073762;28;20568;-63
2022/12/30 08:42:35;;;;;;;5.87;1.90;;;6.50;99.90;;;-141.84;69.17;19031.47;5074044;28;20743;-66
2022/12/30 08:45:06;;;;;;;6.53;1.83;;;6.50;99.90;;;-141.84;68.94;19011.13;5073904;28;20228;-67
2022/12/30 08:47:35;;;;;;;5.60;1.63;;;6.60;99.90;;;-141.84;69.18;19031.47;5074172;28;20208;-64
2022/12/30 08:50:05;;;;;;;7.27;2.17;;;6.60;99.90;;;-141.84;68.04;19057.88;5073544;28;20220;-65
2022/12/30 08:52:33;;;;;;;4.73;1.90;;;6.70;99.90;;;-141.84;68.75;19009.09;5073508;28;20255;-64
2022/12/30 08:55:01;;;;;;;4.57;1.53;;;6.80;99.90;;;-141.84;68.21;19037.56;5073622;28;20216;-64
2022/12/30 08:57:30;;;;;;;7.50;2.03;;;6.80;99.90;;;-141.84;67.18;19053.81;5073532;28;20594;-66
2022/12/30 08:59:59;;;;;;;8.00;1.77;;;7.00;99.90;;;-141.84;66.13;19098.50;5073337;28;20557;-66
2022/12/30 09:02:27;;;;;;;3.03;1.70;;;7.10;99.90;;;-141.84;66.56;19070.06;5073092;28;20260;-65
2022/12/30 09:04:56;;;;;;;4.47;1.67;;;7.10;99.90;;;-141.84;66.00;19129.00;5073121;28;20573;-64
2022/12/30 09:07:24;;;;;;;3.63;1.70;;;7.20;99.90;;;-141.84;66.21;19078.19;5073479;28;20224;-64
2022/12/30 09:10:12;;;;;;;6.77;3.27;;;7.30;99.90;;;-141.84;66.67;19090.38;5070276;28;20282;-63
2022/12/30 09:12:40;;;;;;;5.33;2.17;;;7.20;99.90;;;-141.84;66.39;19100.53;5066795;28;20197;-64
2022/12/30 09:15:11;;;;;;;5.47;1.47;;;7.30;99.90;;;-141.84;66.06;19102.56;5071634;28;20220;-65
2022/12/30 09:17:39;;;;;;;6.30;1.87;;;7.30;99.90;;;-141.84;66.21;19070.06;5071930;28;20229;-64
2022/12/30 09:20:08;;;;;;;5.60;2.00;;;7.40;99.90;;;-141.84;65.70;19102.56;5070555;28;20229;-64
2022/12/30 09:22:36;;;;;;;6.63;2.70;;;7.40;99.90;;;-141.84;65.67;19080.22;5071649;28;20236;-65
2022/12/30 09:25:07;;;;;;;3.80;1.50;;;7.50;99.90;;;-141.84;64.92;19137.13;5071775;28;20201;-64
2022/12/30 09:27:35;;;;;;;4.83;1.77;;;7.50;99.90;;;-141.84;63.89;19159.47;5071893;28;20201;-63
2022/12/30 09:30:03;;;;;;;3.80;1.77;;;7.70;99.90;;;-141.84;63.99;19147.28;5074283;28;20262;-64
2022/12/30 09:32:33;;;;;;;4.33;1.70;;;7.70;99.90;;;-141.84;64.15;19108.69;5072750;28;20220;-65
2022/12/30 09:35:01;;;;;;;5.57;1.50;;;7.80;99.90;;;-141.84;63.56;19171.66;5069950;28;20246;-64
2022/12/30 09:37:29;;;;;;;5.33;1.87;;;7.80;99.90;;;-141.84;63.40;19183.84;5076337;28;20562;-65
2022/12/30 09:39:57;;;;;;;4.90;1.80;;;7.90;99.90;;;-141.84;63.54;19159.47;5080266;28;20217;-64
2022/12/30 09:45:30;;;;;;;7.50;1.90;;;7.90;99.90;;;-141.84;63.42;19157.44;5067392;28;20293;-63
2022/12/30 09:48:06;;;;;;;7.07;1.60;;;7.90;99.90;;;-141.84;63.68;19181.81;5073005;28;20230;-63
2022/12/30 09:50:42;;;;;;;6.00;1.90;;;7.90;99.90;;;-141.84;63.23;19151.34;5070836;28;20236;-64
2022/12/30 09:53:19;;;;;;;6.10;1.80;;;8.10;99.90;;;-141.84;62.84;19196.06;5071784;28;20577;-59
2022/12/30 09:55:58;;;;;;;4.17;1.80;;;8.20;99.90;;;-141.84;63.21;19210.28;5071992;28;20311;-60
2022/12/30 09:58:30;;;;;;;5.97;2.30;;;8.20;99.90;;;-141.84;63.52;19204.19;5069957;28;20232;-60
2022/12/30 10:01:20;;;;;;;6.07;1.80;;;8.20;99.90;;;-141.84;62.96;19187.91;5070406;28;20205;-60
2022/12/30 10:03:53;;;;;;;6.53;2.00;;;8.20;99.90;;;-141.84;62.84;19216.38;5072111;28;20192;-61
2022/12/30 10:06:33;;;;;;;5.33;1.50;;;8.30;99.90;;;-141.84;62.25;19222.47;5069720;28;20206;-61
2022/12/30 10:09:49;;;;;;;2.97;1.60;;;8.40;99.90;;;-141.84;62.11;19222.47;5071438;28;20328;-60
2022/12/30 10:12:40;;;;;;;10.30;2.83;;;8.30;99.90;;;-141.84;61.76;19216.38;5071189;28;20303;-60
2022/12/30 10:15:29;;;;;;;4.73;1.90;;;8.40;99.90;;;-141.84;61.51;19230.59;5071155;28;20232;-59
2022/12/30 10:18:29;;;;;;;5.77;2.10;;;8.50;99.90;;;-141.84;62.23;19214.34;5071752;28;20734;-60
2022/12/30 10:21:17;;;;;;;4.47;1.90;;;8.50;99.90;;;-141.84;61.87;19224.50;5071838;28;20243;-59
2022/12/30 10:24:00;;;;;;;3.93;1.73;;;8.50;99.90;;;-141.84;61.61;19228.56;5071701;28;20243;-60
2022/12/30 10:26:40;;;;;;;5.17;2.07;;;8.60;99.90;;;-141.84;61.62;19263.09;5071448;28;20232;-58
2022/12/30 10:29:17;;;;;;;7.50;2.27;;;8.70;99.90;;;-141.84;61.41;19267.16;5071706;28;20221;-60
2022/12/30 10:31:48;;;;;;;4.07;1.90;;;8.70;99.90;;;-141.84;61.54;19291.56;5071907;28;20226;-60
2022/12/30 10:34:20;;;;;;;3.57;1.50;;;8.80;99.90;;;-141.84;61.43;19281.41;5072003;28;20282;-60
2022/12/30 10:36:59;;;;;;;5.20;1.70;;;8.80;99.90;;;-141.84;61.17;19293.59;5071316;28;20611;-60
2022/12/30 10:39:33;;;;;;;6.03;2.03;;;9.00;99.90;;;-141.84;61.46;19295.63;5069326;28;20283;-59
2022/12/30 10:42:24;;;;;;;5.20;2.33;;;9.00;99.90;;;-141.84;60.89;19291.56;5050294;28;20308;-59
2022/12/30 10:45:13;;;;;;;4.37;2.43;;;9.00;99.90;;;-141.84;60.92;19307.81;5062295;28;20225;-60
2022/12/30 10:47:59;;;;;;;4.20;1.90;;;9.10;99.90;;;-141.84;60.89;19311.88;5071412;28;20568;-59
2022/12/30 10:50:37;;;;;;;6.97;2.20;;;9.00;99.90;;;-141.84;61.36;19285.47;5071321;28;20227;-59
2022/12/30 10:53:13;;;;;;;4.50;2.20;;;8.90;99.90;;;-141.84;60.93;19297.66;5070904;28;20232;-60
2022/12/30 10:55:49;;;;;;;4.53;2.10;;;9.00;99.90;;;-141.84;61.27;19289.53;5070497;28;20235;-59
2022/12/30 10:58:28;;;;;;;6.23;2.50;;;9.00;99.90;;;-141.84;61.30;19313.91;5068395;28;20228;-59
2022/12/30 11:00:59;;;;;;;5.70;2.20;;;9.00;99.90;;;-141.84;61.20;19301.72;5051397;28;20185;-59
2022/12/30 11:03:41;;;;;;;6.50;2.27;;;9.00;99.90;;;-141.84;61.07;19330.16;5052146;28;20296;-59
2022/12/30 11:06:21;;;;;;;5.17;2.13;;;9.00;99.90;;;-141.84;60.97;19297.66;5050707;28;20330;-60
2022/12/30 11:08:53;;;;;;;4.90;1.83;;;9.00;99.90;;;-141.84;60.52;19297.66;5047695;28;20221;-59
2022/12/30 11:14:42;;;;;;;6.57;2.30;;;9.00;99.90;;;-141.84;60.68;19317.97;5049703;28;20235;-56
2022/12/30 11:14:44;;;;;;;5.00;2.30;;;9.10;99.90;;;-141.84;60.61;19336.25;5050571;28;20275;-60
2022/12/30 11:17:24;;;;;;;3.63;1.80;;;9.10;99.90;;;-141.84;61.53;19293.59;5050447;28;20704;-59
2022/12/30 11:19:57;;;;;;;5.23;2.20;;;9.00;99.90;;;-141.84;61.56;19285.47;5050334;28;20229;-59
2022/12/30 11:22:25;;;;;;;5.00;1.87;;;9.00;99.90;;;-141.84;60.66;19277.34;5050368;28;20225;-59
2022/12/30 11:25:05;;;;;;;4.53;2.00;;;9.00;99.90;;;-141.84;61.02;19311.88;5050039;28;20193;-60
2022/12/30 11:27:41;;;;;;;5.20;2.03;;;9.00;99.90;;;-141.84;59.79;19344.41;5050580;28;20186;-55